createdAt,value
2023-01-17T00:00:29.426Z,960.95
2023-01-17T00:01:31.465Z,960.9
2023-01-17T00:02:32.934Z,960.9
2023-01-17T00:03:34.677Z,960.94
2023-01-17T00:04:36.341Z,960.98
2023-01-17T00:05:38.055Z,961.1
2023-01-17T00:06:39.796Z,961.01
2023-01-17T00:07:41.533Z,961.1
2023-01-17T00:08:43.301Z,961.09
2023-01-17T00:09:45.044Z,961.02
2023-01-17T00:10:46.731Z,961
2023-01-17T00:11:48.506Z,961.08
2023-01-17T00:12:50.233Z,961.18
2023-01-17T00:13:51.926Z,961.17
2023-01-17T00:14:53.674Z,961.2
2023-01-17T00:15:55.486Z,961.28
2023-01-17T00:16:57.136Z,961.16
2023-01-17T00:17:59.033Z,961.27
2023-01-17T00:19:00.608Z,961.3
2023-01-17T00:20:02.344Z,961.31
2023-01-17T00:21:04.083Z,961.39
2023-01-17T00:22:05.824Z,961.36
2023-01-17T00:23:07.544Z,961.43
2023-01-17T00:24:09.274Z,961.45
2023-01-17T00:25:11.007Z,961.35
2023-01-17T00:26:12.772Z,961.5
2023-01-17T00:27:14.509Z,961.43
2023-01-17T00:28:16.204Z,961.46
2023-01-17T00:29:17.955Z,961.4
2023-01-17T00:30:20.695Z,961.47
2023-01-17T00:31:21.529Z,961.51
2023-01-17T00:32:23.153Z,961.42
2023-01-17T00:33:24.884Z,961.49
2023-01-17T00:34:26.621Z,961.42
2023-01-17T00:35:28.348Z,961.48
2023-01-17T00:36:30.092Z,961.47
2023-01-17T00:37:31.816Z,961.55
2023-01-17T00:38:33.557Z,961.55
2023-01-17T00:39:35.317Z,961.53
2023-01-17T00:40:37.016Z,961.58
2023-01-17T00:41:38.758Z,961.55
2023-01-17T00:42:40.492Z,961.57
2023-01-17T00:43:42.241Z,961.63
2023-01-17T00:44:43.942Z,961.68
2023-01-17T00:45:45.679Z,961.67
2023-01-17T00:46:47.454Z,961.77
2023-01-17T00:47:49.162Z,961.79
2023-01-17T00:48:50.892Z,961.86
2023-01-17T00:49:52.656Z,961.78
2023-01-17T00:50:54.352Z,961.89
2023-01-17T00:51:56.076Z,961.87
2023-01-17T00:52:57.829Z,961.92
2023-01-17T00:53:59.540Z,961.94
2023-01-17T00:55:01.300Z,961.99
2023-01-17T00:56:03.033Z,962.08
2023-01-17T00:57:04.764Z,962.1
2023-01-17T00:58:06.498Z,961.98
2023-01-17T00:59:08.229Z,962.03
2023-01-17T01:00:09.951Z,962.15
2023-01-17T01:01:11.837Z,962.08
2023-01-17T01:02:13.450Z,962.08
2023-01-17T01:03:15.158Z,962.12
2023-01-17T01:04:16.868Z,962.1
2023-01-17T01:05:18.626Z,962.13
2023-01-17T01:06:20.362Z,962.09
2023-01-17T01:07:22.089Z,962.13
2023-01-17T01:08:23.823Z,962.13
2023-01-17T01:09:25.571Z,962.19
2023-01-17T01:10:27.308Z,962.21
2023-01-17T01:11:29.047Z,962.23
2023-01-17T01:12:30.765Z,962.22
2023-01-17T01:13:32.496Z,962.17
2023-01-17T01:14:34.240Z,962.17
2023-01-17T01:15:35.970Z,962.18
2023-01-17T01:16:37.832Z,962.14
2023-01-17T01:17:39.447Z,962.21
2023-01-17T01:18:41.183Z,962.14
2023-01-17T01:19:42.948Z,962.16
2023-01-17T01:20:44.633Z,962.21
2023-01-17T01:21:46.382Z,962.25
2023-01-17T01:22:48.152Z,962.28
2023-01-17T01:23:49.846Z,962.31
2023-01-17T01:24:51.578Z,962.35
2023-01-17T01:25:53.324Z,962.32
2023-01-17T01:26:55.054Z,962.35
2023-01-17T01:27:56.776Z,962.33
2023-01-17T01:28:58.505Z,962.42
2023-01-17T01:30:00.261Z,962.46
2023-01-17T01:31:01.971Z,962.41
2023-01-17T01:32:03.724Z,962.43
2023-01-17T01:33:05.452Z,962.46
2023-01-17T01:34:07.202Z,962.44
2023-01-17T01:35:08.917Z,962.51
2023-01-17T01:36:10.656Z,962.53
2023-01-17T01:37:12.437Z,962.6
2023-01-17T01:38:14.121Z,962.59
2023-01-17T01:39:15.841Z,962.62
2023-01-17T01:40:17.592Z,962.62
2023-01-17T01:41:19.314Z,962.59
2023-01-17T01:42:21.036Z,962.61
2023-01-17T01:43:22.793Z,962.65
2023-01-17T01:44:24.527Z,962.71
2023-01-17T01:45:26.296Z,962.64
2023-01-17T01:46:27.983Z,962.57
2023-01-17T01:47:29.721Z,962.66
2023-01-17T01:48:31.451Z,962.64
2023-01-17T01:49:33.252Z,962.58
2023-01-17T01:50:34.930Z,962.53
2023-01-17T01:51:36.720Z,962.6
2023-01-17T01:52:38.387Z,962.59
2023-01-17T01:53:40.117Z,962.6
2023-01-17T01:54:41.890Z,962.58
2023-01-17T01:55:43.615Z,962.59
2023-01-17T01:56:45.338Z,962.6
2023-01-17T01:57:47.052Z,962.58
2023-01-17T01:58:48.818Z,962.52
2023-01-17T01:59:50.583Z,962.51
2023-01-17T02:00:52.365Z,962.57
2023-01-17T02:01:54.125Z,962.53
2023-01-17T02:02:55.739Z,962.57
2023-01-17T02:03:57.531Z,962.61
2023-01-17T02:04:59.207Z,962.61
2023-01-17T02:06:00.948Z,962.59
2023-01-17T02:07:02.701Z,962.62
2023-01-17T02:08:04.417Z,962.65
2023-01-17T02:09:06.144Z,962.63
2023-01-17T02:10:08.109Z,962.69
2023-01-17T02:11:09.630Z,962.71
2023-01-17T02:12:11.339Z,962.68
2023-01-17T02:13:13.100Z,962.72
2023-01-17T02:14:14.856Z,962.79
2023-01-17T02:15:16.538Z,962.75
2023-01-17T02:16:18.407Z,962.75
2023-01-17T02:17:20.019Z,962.81
2023-01-17T02:18:21.753Z,962.76
2023-01-17T02:19:23.518Z,962.77
2023-01-17T02:20:25.212Z,962.76
2023-01-17T02:21:26.959Z,962.75
2023-01-17T02:22:28.674Z,962.7
2023-01-17T02:23:30.414Z,962.63
2023-01-17T02:24:32.152Z,962.74
2023-01-17T02:25:33.889Z,962.68
2023-01-17T02:26:35.630Z,962.71
2023-01-17T02:27:37.362Z,962.71
2023-01-17T02:28:39.090Z,962.72
2023-01-17T02:29:40.817Z,962.7
2023-01-17T02:30:42.571Z,962.75
2023-01-17T02:31:44.309Z,962.73
2023-01-17T02:32:46.027Z,962.77
2023-01-17T02:33:47.764Z,962.71
2023-01-17T02:34:49.510Z,962.71
2023-01-17T02:35:51.235Z,962.74
2023-01-17T02:36:52.988Z,962.73
2023-01-17T02:37:54.699Z,962.71
2023-01-17T02:38:56.442Z,962.7
2023-01-17T02:39:58.195Z,962.72
2023-01-17T02:40:59.895Z,962.78
2023-01-17T02:42:01.622Z,962.77
2023-01-17T02:43:03.365Z,962.8
2023-01-17T02:44:05.116Z,962.81
2023-01-17T02:45:06.845Z,962.88
2023-01-17T02:46:09.919Z,962.81
2023-01-17T02:47:10.308Z,962.84
2023-01-17T02:48:12.033Z,962.91
2023-01-17T02:49:13.775Z,962.91
2023-01-17T02:50:15.528Z,962.97
2023-01-17T02:51:17.247Z,962.92
2023-01-17T02:52:18.971Z,962.97
2023-01-17T02:53:20.729Z,963.02
2023-01-17T02:54:22.446Z,963.01
2023-01-17T02:55:24.181Z,962.97
2023-01-17T02:56:25.959Z,962.99
2023-01-17T02:57:27.635Z,962.97
2023-01-17T02:58:29.415Z,962.97
2023-01-17T02:59:31.116Z,963.04
2023-01-17T03:00:32.881Z,962.98
2023-01-17T03:01:34.738Z,963.01
2023-01-17T03:02:36.550Z,963.06
2023-01-17T03:03:38.038Z,963.07
2023-01-17T03:04:39.806Z,963.03
2023-01-17T03:05:41.550Z,963.02
2023-01-17T03:06:43.272Z,963.08
2023-01-17T03:07:45.003Z,963.1
2023-01-17T03:08:46.718Z,963.04
2023-01-17T03:09:48.505Z,963.02
2023-01-17T03:10:50.180Z,963.11
2023-01-17T03:11:51.923Z,963.02
2023-01-17T03:12:53.675Z,963.03
2023-01-17T03:13:55.396Z,963.1
2023-01-17T03:14:57.118Z,963.12
2023-01-17T03:15:58.845Z,963.16
2023-01-17T03:17:00.586Z,963.19
2023-01-17T03:18:02.339Z,963.23
2023-01-17T03:19:04.062Z,963.17
2023-01-17T03:20:05.785Z,963.22
2023-01-17T03:21:07.538Z,963.22
2023-01-17T03:22:09.250Z,963.25
2023-01-17T03:23:10.979Z,963.25
2023-01-17T03:24:12.740Z,963.25
2023-01-17T03:25:14.444Z,963.31
2023-01-17T03:26:16.184Z,963.21
2023-01-17T03:27:17.922Z,963.32
2023-01-17T03:28:19.655Z,963.3
2023-01-17T03:29:21.411Z,963.24
2023-01-17T03:30:23.292Z,963.26
2023-01-17T03:31:24.868Z,963.27
2023-01-17T03:32:26.786Z,963.23
2023-01-17T03:33:28.335Z,963.2
2023-01-17T03:34:30.089Z,963.25
2023-01-17T03:35:31.797Z,963.17
2023-01-17T03:36:33.675Z,963.24
2023-01-17T03:37:35.291Z,963.19
2023-01-17T03:38:37.003Z,963.16
2023-01-17T03:39:38.738Z,963.18
2023-01-17T03:40:40.461Z,963.21
2023-01-17T03:41:42.219Z,963.19
2023-01-17T03:42:43.961Z,963.18
2023-01-17T03:43:45.698Z,963.15
2023-01-17T03:44:47.429Z,963.17
2023-01-17T03:45:49.232Z,963.12
2023-01-17T03:46:50.893Z,963.2
2023-01-17T03:47:52.627Z,963.23
2023-01-17T03:48:54.352Z,963.22
2023-01-17T03:49:56.081Z,963.15
2023-01-17T03:50:57.800Z,963.21
2023-01-17T03:51:59.582Z,963.22
2023-01-17T03:53:01.288Z,963.24
2023-01-17T03:54:03.018Z,963.23
2023-01-17T03:55:04.764Z,963.22
2023-01-17T03:56:06.484Z,963.2
2023-01-17T03:57:08.200Z,963.21
2023-01-17T03:58:09.950Z,963.21
2023-01-17T03:59:13.277Z,963.25
2023-01-17T04:00:13.405Z,963.25
2023-01-17T04:01:15.242Z,963.23
2023-01-17T04:02:16.991Z,963.28
2023-01-17T04:03:18.638Z,963.23
2023-01-17T04:04:20.351Z,963.19
2023-01-17T04:05:22.079Z,963.22
2023-01-17T04:06:23.827Z,963.2
2023-01-17T04:07:25.548Z,963.15
2023-01-17T04:08:27.299Z,963.21
2023-01-17T04:09:29.025Z,963.17
2023-01-17T04:10:30.759Z,963.16
2023-01-17T04:11:32.501Z,963.14
2023-01-17T04:12:34.217Z,963.2
2023-01-17T04:13:35.986Z,963.17
2023-01-17T04:14:37.698Z,963.16
2023-01-17T04:15:39.426Z,963.07
2023-01-17T04:16:41.181Z,963.23
2023-01-17T04:17:42.885Z,963.2
2023-01-17T04:18:44.669Z,963.2
2023-01-17T04:19:46.391Z,963.19
2023-01-17T04:20:48.086Z,963.23
2023-01-17T04:21:49.830Z,963.24
2023-01-17T04:22:51.585Z,963.2
2023-01-17T04:23:53.330Z,963.28
2023-01-17T04:24:55.023Z,963.25
2023-01-17T04:25:56.761Z,963.25
2023-01-17T04:26:58.492Z,963.27
2023-01-17T04:28:00.250Z,963.28
2023-01-17T04:29:01.968Z,963.31
2023-01-17T04:30:03.698Z,963.21
2023-01-17T04:31:05.470Z,963.31
2023-01-17T04:32:07.153Z,963.31
2023-01-17T04:33:08.905Z,963.32
2023-01-17T04:34:10.634Z,963.38
2023-01-17T04:35:12.378Z,963.35
2023-01-17T04:36:14.098Z,963.36
2023-01-17T04:37:15.834Z,963.36
2023-01-17T04:38:17.551Z,963.36
2023-01-17T04:39:19.302Z,963.42
2023-01-17T04:40:21.059Z,963.42
2023-01-17T04:41:22.762Z,963.44
2023-01-17T04:42:24.515Z,963.38
2023-01-17T04:43:26.230Z,963.46
2023-01-17T04:44:27.989Z,963.52
2023-01-17T04:45:29.698Z,963.52
2023-01-17T04:46:31.477Z,963.52
2023-01-17T04:47:33.156Z,963.57
2023-01-17T04:48:34.906Z,963.64
2023-01-17T04:49:36.634Z,963.66
2023-01-17T04:50:38.359Z,963.69
2023-01-17T04:51:40.125Z,963.7
2023-01-17T04:52:41.837Z,963.62
2023-01-17T04:53:43.553Z,963.74
2023-01-17T04:54:45.293Z,963.69
2023-01-17T04:55:47.076Z,963.73
2023-01-17T04:56:48.764Z,963.76
2023-01-17T04:57:50.509Z,963.77
2023-01-17T04:58:52.278Z,963.75
2023-01-17T04:59:53.952Z,963.67
2023-01-17T05:00:55.738Z,963.69
2023-01-17T05:01:57.526Z,963.71
2023-01-17T05:02:59.193Z,963.76
2023-01-17T05:04:00.944Z,963.74
2023-01-17T05:05:02.632Z,963.68
2023-01-17T05:06:04.376Z,963.71
2023-01-17T05:07:06.121Z,963.71
2023-01-17T05:08:07.880Z,963.73
2023-01-17T05:09:09.569Z,963.74
2023-01-17T05:10:11.300Z,963.79
2023-01-17T05:11:13.077Z,963.79
2023-01-17T05:12:14.786Z,963.79
2023-01-17T05:13:16.540Z,963.84
2023-01-17T05:14:18.227Z,963.83
2023-01-17T05:15:19.951Z,963.84
2023-01-17T05:16:21.710Z,963.84
2023-01-17T05:17:23.435Z,963.9
2023-01-17T05:18:25.197Z,963.87
2023-01-17T05:19:26.913Z,963.85
2023-01-17T05:20:28.642Z,963.84
2023-01-17T05:21:30.387Z,963.78
2023-01-17T05:22:32.160Z,963.85
2023-01-17T05:23:33.935Z,963.8
2023-01-17T05:24:35.580Z,963.84
2023-01-17T05:25:37.315Z,963.78
2023-01-17T05:26:39.037Z,963.76
2023-01-17T05:27:40.805Z,963.77
2023-01-17T05:28:42.542Z,963.82
2023-01-17T05:29:44.249Z,963.85
2023-01-17T05:30:46.008Z,963.86
2023-01-17T05:31:47.720Z,963.79
2023-01-17T05:32:49.465Z,963.75
2023-01-17T05:33:51.178Z,963.8
2023-01-17T05:34:52.925Z,963.78
2023-01-17T05:35:54.648Z,963.78
2023-01-17T05:36:56.382Z,963.76
2023-01-17T05:37:58.116Z,963.83
2023-01-17T05:38:59.854Z,963.83
2023-01-17T05:40:01.587Z,963.81
2023-01-17T05:41:03.318Z,963.81
2023-01-17T05:42:05.098Z,963.83
2023-01-17T05:43:06.804Z,963.79
2023-01-17T05:44:08.519Z,963.79
2023-01-17T05:45:10.249Z,963.89
2023-01-17T05:46:12.086Z,963.9
2023-01-17T05:47:13.722Z,963.88
2023-01-17T05:48:15.465Z,963.93
2023-01-17T05:49:17.228Z,963.94
2023-01-17T05:50:18.950Z,963.94
2023-01-17T05:51:20.668Z,963.94
2023-01-17T05:52:22.403Z,964
2023-01-17T05:53:24.148Z,963.93
2023-01-17T05:54:25.868Z,963.95
2023-01-17T05:55:27.628Z,963.94
2023-01-17T05:56:29.326Z,963.99
2023-01-17T05:57:31.104Z,963.94
2023-01-17T05:58:32.803Z,963.94
2023-01-17T05:59:37.495Z,963.97
2023-01-17T06:00:36.301Z,963.94
2023-01-17T06:01:38.137Z,963.91
2023-01-17T06:02:39.816Z,963.93
2023-01-17T06:03:41.524Z,963.94
2023-01-17T06:04:43.270Z,963.98
2023-01-17T06:05:45.013Z,964.04
2023-01-17T06:06:46.673Z,963.93
2023-01-17T06:07:48.401Z,963.95
2023-01-17T06:08:51.671Z,964
2023-01-17T06:09:55.021Z,964.02
2023-01-17T06:10:56.770Z,964.07
2023-01-17T06:11:58.641Z,963.98
2023-01-17T06:14:06.745Z,964.07
2023-01-17T06:15:08.560Z,964.04
2023-01-17T06:16:10.389Z,964.05
2023-01-17T06:17:12.032Z,964.08
2023-01-17T06:18:13.756Z,964.03
2023-01-17T06:19:15.471Z,964.05
2023-01-17T06:20:17.243Z,964.06
2023-01-17T06:21:18.948Z,964.07
2023-01-17T06:22:25.839Z,964.05
2023-01-17T06:23:27.525Z,964.09
2023-01-17T06:24:29.239Z,964.11
2023-01-17T06:25:31.027Z,964.14
2023-01-17T06:26:32.725Z,964.12
2023-01-17T06:27:34.447Z,964.12
2023-01-17T06:28:36.171Z,964.13
2023-01-17T06:29:37.921Z,964.18
2023-01-17T06:30:39.665Z,964.13
2023-01-17T06:31:41.429Z,964.15
2023-01-17T06:32:43.147Z,964.16
2023-01-17T06:33:44.849Z,964.14
2023-01-17T06:34:46.586Z,964.18
2023-01-17T06:35:48.317Z,964.23
2023-01-17T06:36:50.069Z,964.18
2023-01-17T06:37:51.799Z,964.2
2023-01-17T06:38:53.546Z,964.22
2023-01-17T06:39:55.270Z,964.28
2023-01-17T06:40:57.016Z,964.25
2023-01-17T06:41:58.733Z,964.28
2023-01-17T06:43:00.485Z,964.23
2023-01-17T06:44:02.180Z,964.2
2023-01-17T06:45:03.919Z,964.23
2023-01-17T06:46:05.728Z,964.24
2023-01-17T06:47:07.401Z,964.23
2023-01-17T06:48:09.180Z,964.31
2023-01-17T06:49:10.879Z,964.25
2023-01-17T06:50:12.608Z,964.27
2023-01-17T06:51:14.335Z,964.26
2023-01-17T06:52:16.051Z,964.22
2023-01-17T06:53:17.804Z,964.24
2023-01-17T06:54:19.524Z,964.18
2023-01-17T06:55:21.294Z,964.18
2023-01-17T06:56:23.002Z,964.17
2023-01-17T06:57:24.739Z,964.15
2023-01-17T06:58:26.544Z,964.13
2023-01-17T06:59:28.230Z,964.13
2023-01-17T07:00:30.025Z,964.07
2023-01-17T07:01:31.793Z,964.08
2023-01-17T07:02:33.409Z,964.06
2023-01-17T07:03:35.158Z,964.03
2023-01-17T07:04:36.868Z,964.03
2023-01-17T07:05:38.645Z,963.98
2023-01-17T07:06:40.328Z,964.02
2023-01-17T07:07:42.081Z,964.02
2023-01-17T07:08:43.810Z,963.97
2023-01-17T07:09:45.551Z,964.05
2023-01-17T07:10:47.273Z,964.1
2023-01-17T07:11:49.008Z,964.06
2023-01-17T07:12:50.749Z,964.09
2023-01-17T07:13:52.472Z,964.03
2023-01-17T07:14:54.240Z,964.06
2023-01-17T07:15:55.970Z,964.05
2023-01-17T07:16:57.678Z,964.13
2023-01-17T07:17:59.407Z,964.13
2023-01-17T07:19:01.194Z,964.17
2023-01-17T07:20:02.869Z,964.24
2023-01-17T07:21:04.627Z,964.22
2023-01-17T07:22:06.352Z,964.21
2023-01-17T07:23:08.068Z,964.24
2023-01-17T07:24:09.876Z,964.17
2023-01-17T07:25:11.539Z,964.13
2023-01-17T07:26:13.274Z,964.11
2023-01-17T07:27:15.037Z,964.14
2023-01-17T07:28:16.764Z,964.15
2023-01-17T07:29:18.491Z,964.1
2023-01-17T07:30:20.228Z,964.11
2023-01-17T07:31:22.095Z,964.12
2023-01-17T07:32:23.671Z,964.06
2023-01-17T07:33:25.413Z,964.09
2023-01-17T07:34:27.142Z,964.03
2023-01-17T07:35:28.882Z,964.05
2023-01-17T07:36:30.608Z,964
2023-01-17T07:37:32.357Z,963.99
2023-01-17T07:38:34.094Z,964
2023-01-17T07:39:35.815Z,964.02
2023-01-17T07:40:42.020Z,963.98
2023-01-17T07:41:39.293Z,963.94
2023-01-17T07:42:41.125Z,963.95
2023-01-17T07:43:42.821Z,963.96
2023-01-17T07:44:44.470Z,963.98
2023-01-17T07:45:46.205Z,963.97
2023-01-17T07:46:48.037Z,963.9
2023-01-17T07:47:49.691Z,963.95
2023-01-17T07:48:51.432Z,963.93
2023-01-17T07:49:53.153Z,963.94
2023-01-17T07:50:54.912Z,963.92
2023-01-17T07:51:56.627Z,963.92
2023-01-17T07:52:58.356Z,963.87
2023-01-17T07:54:00.116Z,963.91
2023-01-17T07:55:01.894Z,963.81
2023-01-17T07:56:03.547Z,963.87
2023-01-17T07:57:05.303Z,963.89
2023-01-17T07:58:07.033Z,963.89
2023-01-17T07:59:08.767Z,963.85
2023-01-17T08:00:10.523Z,963.81
2023-01-17T08:01:12.358Z,963.79
2023-01-17T08:02:13.988Z,963.77
2023-01-17T08:03:15.698Z,963.78
2023-01-17T08:04:17.441Z,963.79
2023-01-17T08:05:19.224Z,963.78
2023-01-17T08:06:20.930Z,963.78
2023-01-17T08:07:22.644Z,963.76
2023-01-17T08:08:24.376Z,963.7
2023-01-17T08:09:26.117Z,963.7
2023-01-17T08:10:27.854Z,963.64
2023-01-17T08:11:29.464Z,963.62
2023-01-17T08:12:31.221Z,963.61
2023-01-17T08:13:32.930Z,963.6
2023-01-17T08:14:34.695Z,963.58
2023-01-17T08:15:36.396Z,963.56
2023-01-17T08:16:38.217Z,963.56
2023-01-17T08:17:39.897Z,963.6
2023-01-17T08:18:41.630Z,963.53
2023-01-17T08:19:43.354Z,963.53
2023-01-17T08:20:45.110Z,963.53
2023-01-17T08:21:46.813Z,963.49
2023-01-17T08:22:48.533Z,963.51
2023-01-17T08:23:50.262Z,963.5
2023-01-17T08:24:52.004Z,963.51
2023-01-17T08:25:53.746Z,963.54
2023-01-17T08:26:55.471Z,963.5
2023-01-17T08:27:57.252Z,963.48
2023-01-17T08:28:58.968Z,963.44
2023-01-17T08:30:00.695Z,963.47
2023-01-17T08:31:02.407Z,963.34
2023-01-17T08:32:04.138Z,963.37
2023-01-17T08:33:05.883Z,963.31
2023-01-17T08:34:07.636Z,963.32
2023-01-17T08:35:09.362Z,963.32
2023-01-17T08:36:11.070Z,963.26
2023-01-17T08:37:12.843Z,963.31
2023-01-17T08:38:14.568Z,963.27
2023-01-17T08:39:16.267Z,963.29
2023-01-17T08:40:18.052Z,963.34
2023-01-17T08:41:19.781Z,963.33
2023-01-17T08:42:21.501Z,963.33
2023-01-17T08:43:23.259Z,963.31
2023-01-17T08:44:24.980Z,963.32
2023-01-17T08:45:26.672Z,963.29
2023-01-17T08:46:28.422Z,963.29
2023-01-17T08:47:30.147Z,963.28
2023-01-17T08:48:31.919Z,963.32
2023-01-17T08:49:33.613Z,963.34
2023-01-17T08:50:35.407Z,963.33
2023-01-17T08:51:37.087Z,963.31
2023-01-17T08:52:38.832Z,963.37
2023-01-17T08:53:40.546Z,963.36
2023-01-17T08:54:42.347Z,963.38
2023-01-17T08:55:44.052Z,963.41
2023-01-17T08:56:45.745Z,963.42
2023-01-17T08:57:47.493Z,963.41
2023-01-17T08:58:49.225Z,963.36
2023-01-17T08:59:50.986Z,963.42
2023-01-17T09:00:53.073Z,963.4
2023-01-17T09:01:54.635Z,963.41
2023-01-17T09:02:56.217Z,963.43
2023-01-17T09:03:57.996Z,963.45
2023-01-17T09:04:59.661Z,963.44
2023-01-17T09:06:01.382Z,963.5
2023-01-17T09:07:03.079Z,963.52
2023-01-17T09:08:04.839Z,963.51
2023-01-17T09:09:06.593Z,963.49
2023-01-17T09:10:08.315Z,963.5
2023-01-17T09:11:10.112Z,963.54
2023-01-17T09:12:11.771Z,963.55
2023-01-17T09:13:13.544Z,963.55
2023-01-17T09:14:15.224Z,963.56
2023-01-17T09:15:16.979Z,963.58
2023-01-17T09:16:18.863Z,963.57
2023-01-17T09:17:20.431Z,963.61
2023-01-17T09:18:22.201Z,963.6
2023-01-17T09:19:23.888Z,963.58
2023-01-17T09:20:25.636Z,963.59
2023-01-17T09:21:27.409Z,963.56
2023-01-17T09:22:29.091Z,963.59
2023-01-17T09:23:30.844Z,963.57
2023-01-17T09:24:32.611Z,963.56
2023-01-17T09:25:34.305Z,963.54
2023-01-17T09:26:36.033Z,963.57
2023-01-17T09:27:37.771Z,963.54
2023-01-17T09:28:39.497Z,963.54
2023-01-17T09:29:41.239Z,963.55
2023-01-17T09:30:43.030Z,963.56
2023-01-17T09:31:44.719Z,963.53
2023-01-17T09:32:46.471Z,963.49
2023-01-17T09:33:48.176Z,963.55
2023-01-17T09:34:49.922Z,963.59
2023-01-17T09:35:51.635Z,963.57
2023-01-17T09:36:53.410Z,963.56
2023-01-17T09:37:57.192Z,963.53
2023-01-17T09:38:56.878Z,963.57
2023-01-17T09:39:58.615Z,963.55
2023-01-17T09:41:00.345Z,963.59
2023-01-17T09:42:02.089Z,963.53
2023-01-17T09:43:03.841Z,963.57
2023-01-17T09:44:05.515Z,963.58
2023-01-17T09:45:07.251Z,963.59
2023-01-17T09:46:09.163Z,963.61
2023-01-17T09:47:11.045Z,963.63
2023-01-17T09:48:12.475Z,963.68
2023-01-17T09:49:14.200Z,963.71
2023-01-17T09:50:15.935Z,963.69
2023-01-17T09:51:17.666Z,963.68
2023-01-17T09:52:19.408Z,963.72
2023-01-17T09:53:21.179Z,963.65
2023-01-17T09:54:22.923Z,963.72
2023-01-17T09:55:24.592Z,963.72
2023-01-17T09:56:26.327Z,963.73
2023-01-17T09:57:28.068Z,963.7
2023-01-17T09:58:29.830Z,963.73
2023-01-17T09:59:35.226Z,963.71
2023-01-17T10:00:33.256Z,963.7
2023-01-17T10:01:35.186Z,963.6
2023-01-17T10:02:36.910Z,963.62
2023-01-17T10:03:38.666Z,963.6
2023-01-17T10:04:40.198Z,963.56
2023-01-17T10:05:41.965Z,963.58
2023-01-17T10:06:43.650Z,963.64
2023-01-17T10:07:45.379Z,963.65
2023-01-17T10:08:47.130Z,963.64
2023-01-17T10:09:48.857Z,963.63
2023-01-17T10:10:50.694Z,963.61
2023-01-17T10:11:52.338Z,963.58
2023-01-17T10:12:54.064Z,963.61
2023-01-17T10:13:55.790Z,963.62
2023-01-17T10:14:57.575Z,963.66
2023-01-17T10:16:00.228Z,963.68
2023-01-17T10:17:01.023Z,963.66
2023-01-17T10:18:02.727Z,963.65
2023-01-17T10:19:04.465Z,963.62
2023-01-17T10:20:06.188Z,963.63
2023-01-17T10:21:07.958Z,963.64
2023-01-17T10:22:09.699Z,963.57
2023-01-17T10:23:11.434Z,963.54
2023-01-17T10:24:13.186Z,963.5
2023-01-17T10:25:14.901Z,963.49
2023-01-17T10:26:16.649Z,963.49
2023-01-17T10:27:18.364Z,963.48
2023-01-17T10:28:20.112Z,963.49
2023-01-17T10:29:21.806Z,963.51
2023-01-17T10:30:23.543Z,963.57
2023-01-17T10:31:25.289Z,963.55
2023-01-17T10:32:27.009Z,963.56
2023-01-17T10:33:28.764Z,963.56
2023-01-17T10:34:30.495Z,963.51
2023-01-17T10:35:32.241Z,963.59
2023-01-17T10:36:33.996Z,963.58
2023-01-17T10:37:35.668Z,963.61
2023-01-17T10:38:37.411Z,963.6
2023-01-17T10:39:39.141Z,963.63
2023-01-17T10:40:40.897Z,963.6
2023-01-17T10:41:42.603Z,963.58
2023-01-17T10:42:44.370Z,963.59
2023-01-17T10:43:46.102Z,963.59
2023-01-17T10:44:47.795Z,963.58
2023-01-17T10:45:49.624Z,963.55
2023-01-17T10:46:51.271Z,963.46
2023-01-17T10:47:53.007Z,963.45
2023-01-17T10:48:54.813Z,963.47
2023-01-17T10:49:56.524Z,963.4
2023-01-17T10:50:58.239Z,963.39
2023-01-17T10:52:00.053Z,963.45
2023-01-17T10:53:01.709Z,963.42
2023-01-17T10:54:03.423Z,963.43
2023-01-17T10:55:05.266Z,963.45
2023-01-17T10:56:06.877Z,963.51
2023-01-17T10:57:08.601Z,963.47
2023-01-17T10:58:10.343Z,963.49
2023-01-17T10:59:12.109Z,963.51
2023-01-17T11:00:13.834Z,963.55
2023-01-17T11:01:15.723Z,963.52
2023-01-17T11:02:17.569Z,963.51
2023-01-17T11:03:19.001Z,963.54
2023-01-17T11:04:20.876Z,963.54
2023-01-17T11:05:22.473Z,963.54
2023-01-17T11:06:24.261Z,963.47
2023-01-17T11:07:25.932Z,963.5
2023-01-17T11:08:27.681Z,963.55
2023-01-17T11:09:29.420Z,963.48
2023-01-17T11:10:31.144Z,963.47
2023-01-17T11:11:32.955Z,963.46
2023-01-17T11:12:34.654Z,963.41
2023-01-17T11:13:36.350Z,963.43
2023-01-17T11:14:38.080Z,963.42
2023-01-17T11:15:40.045Z,963.43
2023-01-17T11:16:41.576Z,963.4
2023-01-17T11:17:43.268Z,963.39
2023-01-17T11:18:45.048Z,963.4
2023-01-17T11:19:46.750Z,963.41
2023-01-17T11:20:48.510Z,963.44
2023-01-17T11:21:50.215Z,963.4
2023-01-17T11:22:51.963Z,963.44
2023-01-17T11:23:53.698Z,963.41
2023-01-17T11:24:55.450Z,963.39
2023-01-17T11:25:57.149Z,963.37
2023-01-17T11:26:58.917Z,963.32
2023-01-17T11:28:00.662Z,963.33
2023-01-17T11:29:02.373Z,963.28
2023-01-17T11:30:04.074Z,963.32
2023-01-17T11:31:05.913Z,963.28
2023-01-17T11:32:07.560Z,963.3
2023-01-17T11:33:09.296Z,963.31
2023-01-17T11:34:11.032Z,963.29
2023-01-17T11:35:12.812Z,963.28
2023-01-17T11:36:14.498Z,963.29
2023-01-17T11:37:16.224Z,963.29
2023-01-17T11:38:17.956Z,963.28
2023-01-17T11:39:19.685Z,963.25
2023-01-17T11:40:21.422Z,963.27
2023-01-17T11:41:23.201Z,963.23
2023-01-17T11:42:24.912Z,963.22
2023-01-17T11:43:26.647Z,963.2
2023-01-17T11:44:28.401Z,963.2
2023-01-17T11:45:30.116Z,963.17
2023-01-17T11:46:31.893Z,963.15
2023-01-17T11:47:33.592Z,963.1
2023-01-17T11:48:35.293Z,963.07
2023-01-17T11:49:37.078Z,963.07
2023-01-17T11:50:38.836Z,963.05
2023-01-17T11:51:40.501Z,963.04
2023-01-17T11:52:42.305Z,963.08
2023-01-17T11:53:43.973Z,962.99
2023-01-17T11:54:45.693Z,963.05
2023-01-17T11:55:47.438Z,963.04
2023-01-17T11:56:49.213Z,963.01
2023-01-17T11:57:50.920Z,963.02
2023-01-17T11:58:52.669Z,963.04
2023-01-17T11:59:54.411Z,963.04
2023-01-17T12:00:56.142Z,963
2023-01-17T12:01:57.866Z,962.97
2023-01-17T12:02:59.652Z,962.98
2023-01-17T12:04:01.484Z,962.98
2023-01-17T12:05:03.178Z,962.97
2023-01-17T12:06:04.779Z,962.95
2023-01-17T12:07:06.508Z,962.96
2023-01-17T12:08:08.252Z,962.88
2023-01-17T12:09:09.994Z,962.93
2023-01-17T12:10:11.721Z,962.88
2023-01-17T12:11:13.533Z,962.82
2023-01-17T12:12:15.209Z,962.83
2023-01-17T12:13:16.938Z,962.83
2023-01-17T12:14:18.660Z,962.81
2023-01-17T12:15:20.376Z,962.8
2023-01-17T12:16:22.161Z,962.77
2023-01-17T12:17:23.849Z,962.75
2023-01-17T12:18:25.574Z,962.79
2023-01-17T12:19:27.321Z,962.78
2023-01-17T12:20:29.057Z,962.77
2023-01-17T12:21:30.811Z,962.75
2023-01-17T12:22:32.550Z,962.74
2023-01-17T12:23:34.248Z,962.69
2023-01-17T12:24:36.021Z,962.68
2023-01-17T12:25:37.785Z,962.73
2023-01-17T12:26:39.465Z,962.68
2023-01-17T12:27:42.702Z,962.65
2023-01-17T12:28:42.942Z,962.6
2023-01-17T12:29:44.693Z,962.63
2023-01-17T12:30:46.397Z,962.62
2023-01-17T12:31:48.170Z,962.58
2023-01-17T12:32:49.868Z,962.57
2023-01-17T12:33:51.718Z,962.53
2023-01-17T12:34:53.335Z,962.59
2023-01-17T12:35:55.063Z,962.5
2023-01-17T12:36:56.800Z,962.54
2023-01-17T12:38:04.952Z,962.52
2023-01-17T12:39:00.264Z,962.47
2023-01-17T12:40:01.993Z,962.5
2023-01-17T12:41:03.720Z,962.45
2023-01-17T12:42:05.527Z,962.45
2023-01-17T12:43:07.200Z,962.42
2023-01-17T12:44:08.965Z,962.42
2023-01-17T12:45:10.686Z,962.46
2023-01-17T12:46:12.446Z,962.4
2023-01-17T12:47:14.155Z,962.44
2023-01-17T12:48:15.869Z,962.4
2023-01-17T12:49:17.585Z,962.41
2023-01-17T12:50:19.339Z,962.45
2023-01-17T12:51:21.063Z,962.39
2023-01-17T12:52:22.860Z,962.36
2023-01-17T12:53:24.573Z,962.38
2023-01-17T12:54:26.312Z,962.38